Time;durP1;ratioP1;P1;durP2;ratioP2;P2;SDS_P1;SDS_P2;PMS_P1;PMS_P2;Temp;Humidity;BMP_temperature;BMP_pressure;BME280_temperature;BME280_humidity;BME280_pressure;Samples;Min_cycle;Max_cycle;Signal;HPM_P1;HPM_P2
2022/09/12 00:01:18;;;;;;;6.03;3.70;;;15.40;99.90;;;;;;4975967;28;20049;-79
2022/09/12 00:03:44;;;;;;;4.97;3.50;;;15.40;99.90;;;;;;5010435;28;20083;-79
2022/09/12 00:06:19;;;;;;;5.97;3.60;;;15.40;99.90;;;;;;5015496;28;20045;-79
2022/09/12 00:08:45;;;;;;;5.65;3.83;;;15.40;99.90;;;;;;4997889;28;20041;-79
2022/09/12 00:11:11;;;;;;;6.07;4.13;;;15.40;99.90;;;;;;4998965;28;20037;-79
2022/09/12 00:13:39;;;;;;;5.25;4.15;;;15.30;99.90;;;;;;4998508;28;20080;-78
2022/09/12 00:16:05;;;;;;;6.15;3.13;;;15.30;99.90;;;;;;4984628;28;20132;-79
2022/09/12 00:18:32;;;;;;;6.07;3.15;;;15.30;99.90;;;;;;4982528;28;20538;-79
2022/09/12 00:21:03;;;;;;;5.70;3.78;;;15.20;99.90;;;;;;4998649;28;20037;-79
2022/09/12 00:23:30;;;;;;;4.90;3.30;;;15.20;99.90;;;;;;5014301;28;20041;-79
2022/09/12 00:25:55;;;;;;;10.25;9.25;;;15.20;99.90;;;;;;5011262;28;20127;-79
2022/09/12 00:28:21;;;;;;;5.00;3.15;;;15.20;99.90;;;;;;5014788;28;20453;-79
2022/09/12 00:30:48;;;;;;;5.07;3.88;;;15.10;99.90;;;;;;5014856;28;20052;-79
2022/09/12 00:33:16;;;;;;;4.85;3.22;;;15.10;99.90;;;;;;5023569;28;20041;-79
2022/09/12 00:35:47;;;;;;;4.50;2.90;;;15.10;99.90;;;;;;4998424;28;20041;-79
2022/09/12 00:38:14;;;;;;;5.10;3.40;;;15.10;99.90;;;;;;5014125;28;20158;-79
2022/09/12 00:40:41;;;;;;;4.90;3.22;;;15.10;99.90;;;;;;4991293;28;20504;-79
2022/09/12 00:43:29;;;;;;;5.35;3.78;;;15.10;99.90;;;;;;4998187;28;20599;-79
2022/09/12 00:45:56;;;;;;;5.60;3.83;;;15.00;99.90;;;;;;4998712;28;20401;-79
2022/09/12 00:48:33;;;;;;;6.55;5.22;;;15.00;99.90;;;;;;4998039;28;20558;-79
2022/09/12 00:51:00;;;;;;;6.43;4.93;;;15.00;99.90;;;;;;5015199;28;20489;-79
2022/09/12 00:53:26;;;;;;;6.57;4.82;;;15.00;99.90;;;;;;4997193;28;20041;-79
2022/09/12 00:55:55;;;;;;;6.60;5.40;;;15.00;99.90;;;;;;4998412;28;20140;-79
2022/09/12 00:58:34;;;;;;;6.07;4.60;;;14.90;99.90;;;;;;5014665;28;20045;-79
2022/09/12 01:01:00;;;;;;;5.75;4.43;;;14.80;99.90;;;;;;5014906;28;20488;-79
2022/09/12 01:03:26;;;;;;;6.78;4.15;;;14.80;99.90;;;;;;5013977;28;20181;-78
2022/09/12 01:06:22;;;;;;;6.00;4.63;;;14.70;99.90;;;;;;4995154;28;20129;-79
2022/09/12 01:08:49;;;;;;;6.85;4.90;;;14.70;99.90;;;;;;5027044;28;20041;-79
2022/09/12 01:11:16;;;;;;;7.38;5.07;;;14.70;99.90;;;;;;4998445;28;20041;-79
2022/09/12 01:13:44;;;;;;;7.00;5.50;;;14.70;99.90;;;;;;5014058;28;20123;-79
2022/09/12 01:16:11;;;;;;;8.05;5.55;;;14.70;99.90;;;;;;5014970;28;20045;-79
2022/09/12 01:19:11;;;;;;;7.68;6.03;;;14.70;99.90;;;;;;4987723;28;20121;-79
2022/09/12 01:21:55;;;;;;;10.82;9.07;;;14.80;99.90;;;;;;4999630;28;20546;-79
2022/09/12 01:24:42;;;;;;;8.30;6.68;;;14.70;99.90;;;;;;4998192;28;20042;-79
2022/09/12 01:27:38;;;;;;;8.95;6.10;;;14.60;99.90;;;;;;5014534;28;20404;-79
2022/09/12 01:30:16;;;;;;;6.80;5.00;;;14.60;99.90;;;;;;5018405;28;20046;-79
2022/09/12 01:33:15;;;;;;;7.10;5.63;;;14.60;99.90;;;;;;4997665;28;20065;-79
2022/09/12 01:35:50;;;;;;;7.28;6.00;;;14.60;99.90;;;;;;4981754;28;20042;-79
2022/09/12 01:38:46;;;;;;;10.57;8.27;;;14.60;99.90;;;;;;5009943;28;20049;-79
2022/09/12 01:41:34;;;;;;;8.60;7.20;;;14.60;99.90;;;;;;4998447;28;20140;-79
2022/09/12 01:44:00;;;;;;;9.38;7.88;;;14.60;99.90;;;;;;5029795;28;20044;-79
2022/09/12 01:47:04;;;;;;;9.30;8.30;;;14.60;99.90;;;;;;5013272;28;20069;-79
2022/09/12 01:49:57;;;;;;;12.63;11.02;;;14.50;99.90;;;;;;4986419;28;20069;-79
2022/09/12 01:52:36;;;;;;;22.45;20.13;;;14.60;99.90;;;;;;5024354;28;20048;-79
2022/09/12 01:55:26;;;;;;;13.68;11.10;;;14.60;99.90;;;;;;4997163;28;20401;-79
2022/09/12 01:58:16;;;;;;;11.32;10.10;;;14.50;99.90;;;;;;5017284;28;20041;-79
2022/09/12 02:01:06;;;;;;;21.48;18.65;;;14.50;99.90;;;;;;5001196;28;20026;-79
2022/09/12 02:03:59;;;;;;;14.45;12.10;;;14.50;99.90;;;;;;5033771;28;20567;-79
2022/09/12 02:06:43;;;;;;;14.07;12.63;;;14.50;99.90;;;;;;4991196;28;20092;-79
2022/09/12 02:09:42;;;;;;;19.50;17.30;;;14.50;99.90;;;;;;5011121;28;20054;-79
2022/09/12 02:12:10;;;;;;;21.35;18.88;;;14.40;99.90;;;;;;4994182;28;20128;-79
2022/09/12 02:14:42;;;;;;;14.18;12.68;;;14.40;99.90;;;;;;5015152;28;20153;-79
2022/09/12 02:17:10;;;;;;;23.83;21.30;;;14.40;99.90;;;;;;4996211;28;20045;-78
2022/09/12 02:19:44;;;;;;;28.70;25.60;;;14.40;99.90;;;;;;4998455;28;20057;-79
2022/09/12 02:22:14;;;;;;;14.50;12.82;;;14.40;99.90;;;;;;5016361;28;20041;-79
2022/09/12 02:24:44;;;;;;;14.30;12.63;;;14.30;99.90;;;;;;5001058;28;20500;-79
2022/09/12 02:27:47;;;;;;;14.38;12.88;;;14.30;99.90;;;;;;5016686;28;20037;-79
2022/09/12 02:30:15;;;;;;;16.50;14.80;;;14.30;99.90;;;;;;4957754;28;20046;-79
2022/09/12 02:33:09;;;;;;;32.88;29.23;;;14.30;99.90;;;;;;5016572;28;20126;-79
2022/09/12 02:35:42;;;;;;;37.17;33.22;;;14.30;99.90;;;;;;5011044;28;20030;-79
2022/09/12 02:38:32;;;;;;;55.28;41.53;;;14.20;99.90;;;;;;4995342;28;20045;-79
2022/09/12 02:40:58;;;;;;;57.28;44.17;;;14.10;99.90;;;;;;5000805;28;20500;-79
2022/09/12 02:43:24;;;;;;;22.80;20.38;;;14.00;99.90;;;;;;4967443;28;20042;-79
2022/09/12 02:45:50;;;;;;;18.58;16.58;;;13.90;99.90;;;;;;4997178;28;20050;-79
2022/09/12 02:48:24;;;;;;;17.70;15.90;;;13.90;99.90;;;;;;5007838;28;20446;-79
2022/09/12 02:50:50;;;;;;;18.10;16.17;;;14.00;99.90;;;;;;5033559;28;20038;-79
2022/09/12 02:53:17;;;;;;;23.60;20.60;;;14.00;99.90;;;;;;5013305;28;20049;-78
2022/09/12 02:55:43;;;;;;;19.13;17.13;;;14.00;99.90;;;;;;5016580;28;20034;-79
2022/09/12 02:58:15;;;;;;;18.25;15.95;;;14.00;99.90;;;;;;4999867;28;20167;-78
2022/09/12 03:00:45;;;;;;;;;;;14.00;99.90;;;;;;5016959;28;20051;-79
2022/09/12 03:03:37;;;;;;;26.50;23.50;;;14.00;99.90;;;;;;4999912;28;19917;-79
2022/09/12 03:06:28;;;;;;;20.37;18.27;;;14.00;99.90;;;;;;4999588;28;20045;-79
2022/09/12 03:09:06;;;;;;;17.83;16.02;;;14.00;99.90;;;;;;5015805;28;20088;-79
2022/09/12 03:11:52;;;;;;;18.92;16.92;;;14.00;99.90;;;;;;4999417;28;20492;-78
2022/09/12 03:14:18;;;;;;;19.25;16.95;;;14.00;99.90;;;;;;5016313;28;20064;-79
2022/09/12 03:16:59;;;;;;;20.48;17.58;;;14.00;99.90;;;;;;4979947;28;20037;-79
2022/09/12 03:20:08;;;;;;;37.05;31.83;;;14.00;99.90;;;;;;5010512;28;20484;-79
2022/09/12 03:22:50;;;;;;;38.97;34.03;;;14.00;99.90;;;;;;4985366;28;20046;-79
2022/09/12 03:25:21;;;;;;;;;;;13.90;99.90;;;;;;5012974;28;20370;-79
2022/09/12 03:27:50;;;;;;;18.73;16.73;;;13.90;99.90;;;;;;5004193;28;19977;-79
2022/09/12 03:30:16;;;;;;;20.27;18.05;;;13.90;99.90;;;;;;4982665;28;20037;-79
2022/09/12 03:32:50;;;;;;;21.92;19.52;;;13.90;99.90;;;;;;4981158;28;20446;-79
2022/09/12 03:35:19;;;;;;;26.15;23.33;;;13.90;99.90;;;;;;4996322;28;20085;-79
2022/09/12 03:37:46;;;;;;;36.53;32.60;;;13.90;99.90;;;;;;4967218;28;20396;-79
2022/09/12 03:40:12;;;;;;;25.27;22.58;;;13.90;99.90;;;;;;4996280;28;20058;-79
2022/09/12 03:42:38;;;;;;;32.13;28.65;;;13.90;99.90;;;;;;5006230;28;20038;-79
2022/09/12 03:45:05;;;;;;;27.38;23.50;;;13.90;99.90;;;;;;4987316;28;20042;-79
2022/09/12 03:47:31;;;;;;;43.15;36.10;;;13.90;99.90;;;;;;5001622;28;20081;-79
2022/09/12 03:49:56;;;;;;;23.90;21.35;;;13.80;99.90;;;;;;5001823;28;20531;-79
2022/09/12 03:52:22;;;;;;;40.47;34.63;;;13.80;99.90;;;;;;4989044;28;20042;-79
2022/09/12 03:54:48;;;;;;;34.35;30.58;;;13.80;99.90;;;;;;4981227;28;20493;-79
2022/09/12 03:57:14;;;;;;;27.02;24.23;;;13.80;99.90;;;;;;5009117;28;20494;-79
2022/09/12 03:59:40;;;;;;;36.88;32.30;;;13.80;99.90;;;;;;5019532;28;20045;-79
2022/09/12 04:02:06;;;;;;;47.17;37.42;;;13.80;99.90;;;;;;5002124;28;20489;-79
2022/09/12 04:04:32;;;;;;;29.77;26.58;;;13.80;99.90;;;;;;4979990;28;20437;-79
2022/09/12 04:06:57;;;;;;;50.90;38.35;;;13.70;99.90;;;;;;4995128;28;20179;-79
2022/09/12 04:09:23;;;;;;;23.48;20.85;;;13.60;99.90;;;;;;4995209;28;20123;-79
2022/09/12 04:11:49;;;;;;;23.27;20.80;;;13.60;99.90;;;;;;4980886;28;20043;-79
2022/09/12 04:14:15;;;;;;;26.52;23.73;;;13.60;99.90;;;;;;5004908;28;20079;-78
2022/09/12 04:16:40;;;;;;;20.88;18.67;;;13.60;99.90;;;;;;5018857;28;20041;-79
2022/09/12 04:19:06;;;;;;;29.60;25.90;;;13.60;99.90;;;;;;5015423;28;20099;-78
2022/09/12 04:21:32;;;;;;;22.58;20.17;;;13.60;99.90;;;;;;4994400;28;20049;-79
2022/09/12 04:23:58;;;;;;;21.52;18.60;;;13.60;99.90;;;;;;5006719;28;20125;-79
2022/09/12 04:26:24;;;;;;;20.65;18.17;;;13.60;99.90;;;;;;5014580;28;20501;-78
2022/09/12 04:28:53;;;;;;;19.42;17.27;;;13.60;99.90;;;;;;5014959;28;20053;-78
2022/09/12 04:31:21;;;;;;;18.63;16.63;;;13.60;99.90;;;;;;5022533;28;20044;-78
2022/09/12 04:33:51;;;;;;;19.05;17.05;;;13.60;99.90;;;;;;5014525;28;20041;-78
2022/09/12 04:36:17;;;;;;;18.13;15.88;;;13.70;99.90;;;;;;5014726;28;20049;-78
2022/09/12 04:38:45;;;;;;;51.63;36.17;;;13.60;99.90;;;;;;5014830;28;20044;-79
2022/09/12 04:41:19;;;;;;;36.28;29.38;;;13.60;99.90;;;;;;5014770;28;20042;-78
2022/09/12 04:43:47;;;;;;;19.10;17.10;;;13.60;99.90;;;;;;5017005;28;20041;-77
2022/09/12 04:46:16;;;;;;;23.33;21.00;;;13.60;99.90;;;;;;5026294;28;20488;-76
2022/09/12 04:48:42;;;;;;;18.60;16.60;;;13.60;99.90;;;;;;5027943;28;20508;-78
2022/09/12 04:51:10;;;;;;;17.30;15.30;;;13.60;99.90;;;;;;5027246;28;20037;-78
2022/09/12 04:53:37;;;;;;;17.05;15.25;;;13.50;99.90;;;;;;5026979;28;20054;-78
2022/09/12 04:56:05;;;;;;;18.42;15.40;;;13.50;99.90;;;;;;5025833;28;20042;-78
2022/09/12 04:58:32;;;;;;;16.65;14.68;;;13.50;99.90;;;;;;5023290;28;20049;-78
2022/09/12 05:01:05;;;;;;;16.13;14.43;;;13.50;99.90;;;;;;5013116;28;20065;-78
2022/09/12 05:03:31;;;;;;;17.63;15.60;;;13.60;99.90;;;;;;5023776;28;20033;-79
2022/09/12 05:05:56;;;;;;;20.20;18.20;;;13.60;99.90;;;;;;5017865;28;20140;-80
2022/09/12 05:08:22;;;;;;;16.45;14.75;;;13.60;99.90;;;;;;5016717;28;20484;-78
2022/09/12 05:10:48;;;;;;;16.17;14.40;;;13.50;99.90;;;;;;5001550;28;20083;-76
2022/09/12 05:13:13;;;;;;;20.65;18.55;;;13.50;99.90;;;;;;5004389;28;20078;-78
2022/09/12 05:15:39;;;;;;;15.18;13.68;;;13.40;99.90;;;;;;5005615;28;20038;-77
2022/09/12 05:18:05;;;;;;;20.25;18.25;;;13.30;99.90;;;;;;5019597;28;20047;-77
2022/09/12 05:20:32;;;;;;;15.90;14.20;;;13.30;99.90;;;;;;5027969;28;20577;-76
2022/09/12 05:22:58;;;;;;;19.63;17.55;;;13.30;99.90;;;;;;5015628;28;20041;-77
2022/09/12 05:25:24;;;;;;;24.23;21.75;;;13.40;99.90;;;;;;5019342;28;20059;-77
2022/09/12 05:27:53;;;;;;;23.77;21.23;;;13.30;99.90;;;;;;5004596;28;20408;-77
2022/09/12 05:30:19;;;;;;;33.53;28.55;;;13.40;99.90;;;;;;4991268;28;20038;-77
2022/09/12 05:32:44;;;;;;;33.53;29.65;;;13.40;99.90;;;;;;4990327;28;20057;-77
2022/09/12 05:35:11;;;;;;;32.83;28.55;;;13.40;99.90;;;;;;5017178;28;20034;-78
2022/09/12 05:37:36;;;;;;;33.58;28.95;;;13.50;99.90;;;;;;5034817;28;20120;-79
2022/09/12 05:40:06;;;;;;;37.67;31.02;;;13.50;99.90;;;;;;5003176;28;20065;-78
2022/09/12 05:42:32;;;;;;;34.10;27.88;;;13.50;99.90;;;;;;5017955;28;20112;-77
2022/09/12 05:44:58;;;;;;;37.05;30.83;;;13.60;99.90;;;;;;4995395;28;20069;-77
2022/09/12 05:47:23;;;;;;;40.75;33.50;;;13.70;99.90;;;;;;5011441;28;20041;-77
2022/09/12 05:49:50;;;;;;;40.10;31.88;;;13.80;99.90;;;;;;5010242;28;20102;-77
2022/09/12 05:52:16;;;;;;;38.40;32.30;;;13.90;99.90;;;;;;5017247;28;20045;-77
2022/09/12 05:54:41;;;;;;;40.20;34.00;;;14.00;99.90;;;;;;4998903;28;20459;-77
2022/09/12 05:57:07;;;;;;;46.83;38.22;;;14.10;99.90;;;;;;5013109;28;20045;-77
2022/09/12 05:59:33;;;;;;;51.65;39.30;;;14.20;99.90;;;;;;5013831;28;20037;-77
2022/09/12 06:01:59;;;;;;;47.85;37.47;;;14.20;99.90;;;;;;4983135;28;20049;-77
2022/09/12 06:04:25;;;;;;;51.33;40.03;;;14.30;99.90;;;;;;5010727;28;20041;-77
2022/09/12 06:06:51;;;;;;;51.42;40.50;;;14.50;99.90;;;;;;5014911;28;20049;-78
2022/09/12 06:09:16;;;;;;;56.42;42.95;;;14.50;99.90;;;;;;4999619;28;20068;-78
2022/09/12 06:11:43;;;;;;;57.85;44.35;;;14.60;99.90;;;;;;4998301;28;20041;-78
2022/09/12 06:14:11;;;;;;;58.30;43.72;;;14.70;99.90;;;;;;4999841;28;20106;-78
2022/09/12 06:16:37;;;;;;;55.20;42.70;;;14.80;99.90;;;;;;5000247;28;20052;-78
2022/09/12 06:19:14;;;;;;;57.15;44.03;;;14.80;99.90;;;;;;4998664;28;20120;-78
2022/09/12 06:21:40;;;;;;;56.97;43.03;;;14.90;99.90;;;;;;4993817;28;20485;-78
2022/09/12 06:24:06;;;;;;;55.70;42.97;;;14.90;99.90;;;;;;4988975;28;20048;-78
2022/09/12 06:26:32;;;;;;;54.88;42.35;;;15.00;99.90;;;;;;5004179;28;20037;-79
2022/09/12 06:28:59;;;;;;;57.65;43.72;;;15.00;99.90;;;;;;4989639;28;20069;-79
2022/09/12 06:31:34;;;;;;;58.72;43.92;;;15.10;99.90;;;;;;5006902;28;20056;-79
2022/09/12 06:34:03;;;;;;;56.75;42.95;;;15.10;99.90;;;;;;5004215;28;20049;-79
2022/09/12 06:36:31;;;;;;;57.40;43.35;;;15.10;99.90;;;;;;5003338;28;20508;-79
2022/09/12 06:39:03;;;;;;;60.33;44.88;;;15.20;99.90;;;;;;5003198;28;20096;-79
2022/09/12 06:41:30;;;;;;;;;;;15.20;99.90;;;;;;4998462;28;20077;-79
2022/09/12 06:43:56;;;;;;;55.00;40.22;;;15.20;99.90;;;;;;5012636;28;20424;-79
2022/09/12 06:46:23;;;;;;;56.78;43.53;;;15.30;99.90;;;;;;5009240;28;20033;-79
2022/09/12 06:48:49;;;;;;;57.90;42.95;;;15.30;99.90;;;;;;5005255;28;20047;-79
2022/09/12 06:51:18;;;;;;;50.58;38.42;;;15.40;99.90;;;;;;4999635;28;20057;-80
2022/09/12 06:53:45;;;;;;;52.67;39.33;;;15.50;99.90;;;;;;4996741;28;20070;-78
2022/09/12 06:56:12;;;;;;;47.85;37.83;;;15.50;99.90;;;;;;5004737;28;20037;-77
2022/09/12 06:58:39;;;;;;;49.83;37.95;;;15.60;99.90;;;;;;5004050;28;20077;-77
2022/09/12 07:01:08;;;;;;;47.13;37.63;;;15.70;99.90;;;;;;4999207;28;20045;-76
2022/09/12 07:03:35;;;;;;;46.03;35.92;;;15.70;99.90;;;;;;5002213;28;20049;-78
2022/09/12 07:06:08;;;;;;;46.92;36.03;;;15.70;99.90;;;;;;4991974;28;20034;-77
2022/09/12 07:08:35;;;;;;;45.53;34.28;;;15.80;99.90;;;;;;4998761;28;20042;-77
2022/09/12 07:11:20;;;;;;;46.72;36.05;;;15.80;99.90;;;;;;4998437;28;20042;-77
2022/09/12 07:13:50;;;;;;;47.78;36.00;;;15.80;99.90;;;;;;4997469;28;20046;-78
2022/09/12 07:16:17;;;;;;;43.30;33.92;;;15.80;99.90;;;;;;5020010;28;20068;-78
2022/09/12 07:18:45;;;;;;;42.88;33.05;;;15.90;99.90;;;;;;4997860;28;20037;-79
2022/09/12 07:21:12;;;;;;;41.22;33.20;;;15.90;99.90;;;;;;5004822;28;20476;-80
2022/09/12 07:23:39;;;;;;;41.25;32.97;;;16.00;99.90;;;;;;5015267;28;20053;-79
2022/09/12 07:26:05;;;;;;;37.90;29.85;;;16.00;99.90;;;;;;5000987;28;20045;-79
2022/09/12 07:28:32;;;;;;;39.97;31.13;;;16.10;99.90;;;;;;5016210;28;20041;-78
2022/09/12 07:31:06;;;;;;;36.50;30.13;;;16.10;99.90;;;;;;5005786;28;20045;-78
2022/09/12 07:33:31;;;;;;;39.55;30.23;;;16.10;99.90;;;;;;5024033;28;20480;-78
2022/09/12 07:36:02;;;;;;;38.20;28.60;;;16.20;99.90;;;;;;5002101;28;20052;-78
2022/09/12 07:38:28;;;;;;;37.17;27.92;;;16.20;99.90;;;;;;5005563;28;20041;-78
2022/09/12 07:40:54;;;;;;;36.80;28.45;;;16.20;99.90;;;;;;5021511;28;20523;-78
2022/09/12 07:43:20;;;;;;;31.63;27.33;;;16.20;99.90;;;;;;5002236;28;20099;-78
2022/09/12 07:45:45;;;;;;;33.28;26.33;;;16.20;99.90;;;;;;4983970;28;20048;-78
2022/09/12 07:48:11;;;;;;;33.53;28.10;;;16.30;99.90;;;;;;5019096;28;20515;-78
2022/09/12 07:50:37;;;;;;;30.00;26.38;;;16.30;99.90;;;;;;5022342;28;20072;-78
2022/09/12 07:53:04;;;;;;;31.38;25.45;;;16.30;99.90;;;;;;5007947;28;20039;-78
2022/09/12 07:55:30;;;;;;;31.75;26.08;;;16.40;99.90;;;;;;5007977;28;20167;-78
2022/09/12 07:57:56;;;;;;;29.63;25.42;;;16.50;99.90;;;;;;5001154;28;20045;-78
2022/09/12 08:00:22;;;;;;;29.58;25.63;;;16.60;99.90;;;;;;5004082;28;20041;-78
2022/09/12 08:02:51;;;;;;;27.35;23.67;;;16.60;99.90;;;;;;5006451;28;20045;-78
2022/09/12 08:05:18;;;;;;;27.92;24.92;;;16.70;99.90;;;;;;4998909;28;20133;-78
2022/09/12 08:07:43;;;;;;;28.33;23.42;;;16.70;99.90;;;;;;5005325;28;20052;-79
2022/09/12 08:10:09;;;;;;;24.95;20.88;;;16.80;99.90;;;;;;5007184;28;20037;-78
2022/09/12 08:12:35;;;;;;;24.80;21.92;;;16.90;99.90;;;;;;4999890;28;20034;-78
2022/09/12 08:15:01;;;;;;;24.17;20.42;;;17.10;99.90;;;;;;5000683;28;20061;-78
2022/09/12 08:17:28;;;;;;;23.75;20.30;;;17.10;99.90;;;;;;4965122;28;20052;-78
2022/09/12 08:19:54;;;;;;;24.30;20.90;;;17.20;99.90;;;;;;4973419;28;20077;-79
2022/09/12 08:22:20;;;;;;;21.65;19.05;;;17.40;99.90;;;;;;4973483;28;20037;-79
2022/09/12 08:24:47;;;;;;;22.17;18.10;;;17.40;99.90;;;;;;4979348;28;20547;-79
2022/09/12 08:27:13;;;;;;;20.65;18.27;;;17.50;99.90;;;;;;4990919;28;20057;-78
2022/09/12 08:29:39;;;;;;;21.83;18.30;;;17.60;99.90;;;;;;4991060;28;20049;-79
2022/09/12 08:32:05;;;;;;;20.83;17.00;;;17.60;99.90;;;;;;4991036;28;20465;-79
2022/09/12 08:34:31;;;;;;;20.90;17.33;;;17.70;99.90;;;;;;4991211;28;20070;-79
2022/09/12 08:36:57;;;;;;;19.27;16.17;;;17.70;99.90;;;;;;4978001;28;20038;-79
2022/09/12 08:39:23;;;;;;;21.35;17.60;;;17.80;99.90;;;;;;4988761;28;20057;-79
2022/09/12 08:42:00;;;;;;;18.55;16.48;;;17.80;99.90;;;;;;4976505;28;20050;-79
2022/09/12 08:44:54;;;;;;;20.67;17.65;;;17.90;99.90;;;;;;4992716;28;20062;-79
2022/09/12 08:47:26;;;;;;;20.95;18.13;;;18.00;99.90;;;;;;4993582;28;20113;-79
2022/09/12 08:50:06;;;;;;;20.60;17.23;;;18.00;99.90;;;;;;4989287;28;20042;-79
2022/09/12 08:53:17;;;;;;;22.42;18.48;;;18.10;99.90;;;;;;5008703;28;20053;-79
2022/09/12 08:55:59;;;;;;;20.38;17.73;;;18.20;99.90;;;;;;4994048;28;20103;-79
2022/09/12 08:58:27;;;;;;;22.00;18.25;;;18.30;99.90;;;;;;4991182;28;20500;-79
2022/09/12 09:01:14;;;;;;;23.38;19.83;;;18.30;99.90;;;;;;4977054;28;20042;-79
2022/09/12 09:03:43;;;;;;;21.80;18.98;;;18.40;99.90;;;;;;4993401;28;20129;-79
2022/09/12 09:06:40;;;;;;;26.20;21.98;;;18.50;99.90;;;;;;4994130;28;20046;-79
2022/09/12 09:09:27;;;;;;;27.60;23.05;;;18.50;99.90;;;;;;5010132;28;20493;-79
2022/09/12 09:12:08;;;;;;;27.90;22.33;;;18.70;99.90;;;;;;4990576;28;20034;-79
2022/09/12 09:15:12;;;;;;;30.77;24.40;;;18.80;99.90;;;;;;5006443;28;20153;-79
2022/09/12 09:17:50;;;;;;;30.92;24.80;;;19.00;99.90;;;;;;4995672;28;20048;-79
2022/09/12 09:20:40;;;;;;;31.02;24.90;;;19.10;99.90;;;;;;5037127;28;20171;-79
2022/09/12 09:23:14;;;;;;;30.85;25.15;;;19.40;99.90;;;;;;5034865;28;20045;-79
2022/09/12 09:25:51;;;;;;;32.90;27.02;;;19.60;99.90;;;;;;5019254;28;20037;-79
2022/09/12 09:28:29;;;;;;;32.53;25.80;;;19.70;99.90;;;;;;5019522;28;20044;-79
2022/09/12 09:30:56;;;;;;;36.50;28.90;;;19.80;99.90;;;;;;5020282;28;20111;-79
2022/09/12 09:33:26;;;;;;;37.20;28.23;;;20.00;99.90;;;;;;5016099;28;20044;-79
2022/09/12 09:35:58;;;;;;;35.92;28.83;;;20.00;99.90;;;;;;5016886;28;20037;-79
2022/09/12 09:38:40;;;;;;;36.97;28.67;;;20.20;99.90;;;;;;5010760;28;20049;-79
2022/09/12 09:41:32;;;;;;;35.65;28.02;;;20.50;99.90;;;;;;5021161;28;20186;-79
2022/09/12 09:43:59;;;;;;;35.95;28.55;;;20.70;99.90;;;;;;4994912;28;20052;-79
2022/09/12 09:46:26;;;;;;;34.42;28.00;;;20.80;99.90;;;;;;5018518;28;20042;-79
2022/09/12 09:48:53;;;;;;;39.00;29.95;;;21.00;99.90;;;;;;5015650;28;20042;-79
2022/09/12 09:51:27;;;;;;;37.72;29.15;;;21.00;99.90;;;;;;5021104;28;20076;-79
2022/09/12 09:54:01;;;;;;;37.33;29.73;;;21.10;99.90;;;;;;5019172;28;20041;-79
2022/09/12 09:56:36;;;;;;;37.10;28.80;;;21.20;99.90;;;;;;5021722;28;20073;-80
2022/09/12 09:59:17;;;;;;;40.33;31.83;;;21.40;99.90;;;;;;5012712;28;20042;-79
2022/09/12 10:01:44;;;;;;;39.03;30.35;;;21.50;99.90;;;;;;4998919;28;20046;-79
2022/09/12 10:04:21;;;;;;;39.22;29.25;;;21.50;99.90;;;;;;5003368;28;20053;-79
2022/09/12 10:06:49;;;;;;;36.90;28.27;;;21.60;99.90;;;;;;5022815;28;20666;-79
2022/09/12 10:09:21;;;;;;;35.15;28.17;;;21.80;99.90;;;;;;5022776;28;20068;-79
2022/09/12 10:11:48;;;;;;;34.38;27.95;;;22.00;99.90;;;;;;5022851;28;20111;-79
2022/09/12 10:14:40;;;;;;;36.38;26.40;;;22.20;99.90;;;;;;5019708;28;20543;-79
2022/09/12 10:17:28;;;;;;;33.08;25.15;;;22.50;99.90;;;;;;4998799;28;20488;-79
2022/09/12 10:19:55;;;;;;;34.83;27.30;;;22.80;99.90;;;;;;5017417;28;20037;-79
2022/09/12 10:22:23;;;;;;;31.88;24.85;;;22.90;99.90;;;;;;5012518;28;20095;-79
2022/09/12 10:24:51;;;;;;;30.17;24.38;;;23.00;99.90;;;;;;5015222;28;20045;-79
2022/09/12 10:27:28;;;;;;;30.70;25.33;;;23.20;99.90;;;;;;5011247;28;20053;-79
2022/09/12 10:30:16;;;;;;;30.92;24.95;;;23.30;99.90;;;;;;5008327;28;20136;-79
2022/09/12 10:32:45;;;;;;;30.52;24.33;;;23.50;99.90;;;;;;4996672;28;20052;-79
2022/09/12 10:35:24;;;;;;;27.55;22.92;;;23.60;99.90;;;;;;5014664;28;20120;-79
2022/09/12 10:38:02;;;;;;;28.23;22.98;;;23.60;99.90;;;;;;5021854;28;20037;-79
2022/09/12 10:40:37;;;;;;;28.20;23.33;;;23.70;99.80;;;;;;5000146;28;20048;-79
2022/09/12 10:43:16;;;;;;;27.42;23.60;;;23.70;99.30;;;;;;4987908;28;20045;-79
2022/09/12 10:45:42;;;;;;;22.95;18.83;;;23.80;99.90;;;;;;5009753;28;20603;-79
2022/09/12 10:48:27;;;;;;;24.20;19.25;;;24.00;99.80;;;;;;5012393;28;20120;-79
2022/09/12 10:50:54;;;;;;;29.35;20.40;;;24.10;99.30;;;;;;4950460;28;20069;-79
2022/09/12 10:53:22;;;;;;;26.75;19.85;;;24.10;98.80;;;;;;4989854;28;20503;-79
2022/09/12 10:56:15;;;;;;;29.23;22.33;;;24.20;97.10;;;;;;5022970;28;20033;-79
2022/09/12 10:59:00;;;;;;;27.33;23.35;;;24.20;97.00;;;;;;4959135;28;20044;-79
2022/09/12 11:01:32;;;;;;;27.98;22.75;;;24.30;97.60;;;;;;4993678;28;20038;-79
2022/09/12 11:04:14;;;;;;;28.42;22.27;;;24.40;97.80;;;;;;4985277;28;20042;-79
2022/09/12 11:06:49;;;;;;;28.08;22.63;;;24.50;96.20;;;;;;4985620;28;20034;-79
2022/09/12 11:09:41;;;;;;;27.33;22.65;;;24.40;97.70;;;;;;5001376;28;20061;-80
2022/09/12 11:12:27;;;;;;;;;;;24.40;96.90;;;;;;5002078;28;20038;-79
2022/09/12 11:14:55;;;;;;;24.33;20.40;;;24.50;97.70;;;;;;4999144;28;20391;-79
2022/09/12 11:17:27;;;;;;;23.60;19.00;;;24.60;95.90;;;;;;5004049;28;20036;-79
2022/09/12 11:20:35;;;;;;;27.58;21.88;;;24.60;96.40;;;;;;4984018;28;20046;-79
2022/09/12 11:23:42;;;;;;;23.77;20.10;;;24.60;97.10;;;;;;5003075;28;20111;-79
2022/09/12 11:26:30;;;;;;;24.08;20.20;;;24.60;94.70;;;;;;4955911;28;20603;-79
2022/09/12 11:29:38;;;;;;;23.55;18.95;;;24.50;95.30;;;;;;5001050;28;20057;-79
2022/09/12 11:32:35;;;;;;;21.42;18.00;;;24.40;96.30;;;;;;4973094;28;20065;-79
2022/09/12 11:35:29;;;;;;;19.52;16.63;;;24.50;96.50;;;;;;4997620;28;20488;-79
2022/09/12 11:38:10;;;;;;;20.20;16.40;;;24.60;95.10;;;;;;4980510;28;20056;-79
2022/09/12 11:40:44;;;;;;;20.25;16.27;;;24.60;96.10;;;;;;5000839;28;20069;-79
2022/09/12 11:43:50;;;;;;;21.67;17.77;;;24.70;96.80;;;;;;4998959;28;20038;-79
2022/09/12 11:46:22;;;;;;;22.83;17.40;;;24.80;95.60;;;;;;5002340;28;20485;-79
2022/09/12 11:49:07;;;;;;;20.45;16.80;;;24.80;95.50;;;;;;4982242;28;20045;-79
2022/09/12 11:51:52;;;;;;;19.88;16.02;;;24.90;94.20;;;;;;4999291;28;20077;-79
2022/09/12 11:54:18;;;;;;;19.55;15.38;;;25.00;94.90;;;;;;4984705;28;20034;-79
2022/09/12 11:56:46;;;;;;;21.15;16.92;;;25.00;95.20;;;;;;5000754;28;20427;-80
2022/09/12 11:59:36;;;;;;;18.88;15.65;;;25.00;94.80;;;;;;5002911;28;20555;-80
2022/09/12 12:02:02;;;;;;;17.65;13.75;;;24.90;93.70;;;;;;4994011;28;20129;-79
2022/09/12 12:04:41;;;;;;;15.88;12.63;;;24.80;92.20;;;;;;4999369;28;20563;-79
2022/09/12 12:07:09;;;;;;;14.80;12.25;;;24.70;93.60;;;;;;4999301;28;20541;-79
2022/09/12 12:09:45;;;;;;;14.88;11.77;;;24.60;93.50;;;;;;4991952;28;20050;-80
2022/09/12 12:12:18;;;;;;;16.35;12.05;;;24.60;92.40;;;;;;4980443;28;20132;-79
2022/09/12 12:14:46;;;;;;;15.52;11.23;;;24.70;92.90;;;;;;4973578;28;20056;-80
2022/09/12 12:17:18;;;;;;;14.38;10.85;;;24.80;93.20;;;;;;4994031;28;20100;-80
2022/09/12 12:19:45;;;;;;;16.08;12.23;;;25.00;92.70;;;;;;4967071;28;20124;-80
2022/09/12 12:22:19;;;;;;;15.18;12.48;;;25.20;92.50;;;;;;4959123;28;20055;-79
2022/09/12 12:25:23;;;;;;;14.55;11.02;;;25.30;91.20;;;;;;4980452;28;20042;-80
2022/09/12 12:28:00;;;;;;;17.17;12.65;;;25.20;91.20;;;;;;4976524;28;20050;-79
2022/09/12 12:30:29;;;;;;;15.93;13.00;;;25.00;91.20;;;;;;4996893;28;20439;-79
2022/09/12 12:33:21;;;;;;;16.48;13.02;;;25.00;90.90;;;;;;4978576;28;20050;-80
2022/09/12 12:36:08;;;;;;;17.33;12.80;;;25.00;91.30;;;;;;4954805;28;20736;-79
2022/09/12 12:38:43;;;;;;;15.77;12.20;;;25.10;91.30;;;;;;4970372;28;20531;-79
2022/09/12 12:41:17;;;;;;;15.75;11.93;;;25.00;91.60;;;;;;4969976;28;20044;-79
2022/09/12 12:43:45;;;;;;;14.32;11.05;;;25.00;91.30;;;;;;4968280;28;20496;-79
2022/09/12 12:46:13;;;;;;;12.98;11.00;;;25.00;91.30;;;;;;5007943;28;20037;-80
2022/09/12 12:49:20;;;;;;;14.52;10.25;;;25.00;91.50;;;;;;4961649;28;20034;-80
2022/09/12 12:52:00;;;;;;;12.48;9.93;;;25.10;91.10;;;;;;4974144;28;20043;-80
2022/09/12 12:54:28;;;;;;;13.63;10.63;;;25.10;89.80;;;;;;4978824;28;20553;-79
2022/09/12 12:57:16;;;;;;;11.73;9.15;;;25.10;89.30;;;;;;4999861;28;20485;-79
2022/09/12 12:59:56;;;;;;;12.88;9.82;;;25.10;90.10;;;;;;4979585;28;20042;-80
2022/09/12 13:02:30;;;;;;;12.43;8.88;;;25.10;88.50;;;;;;4991681;28;20486;-80